9PA0 weather

Lance Airport
Parker Ford, Pennsylvania, United States

Public forecast

Using degrees Fahrenheit for public forecast. Weather courtesy of forecast.io.

METAR (pilot weather report)

Closest report is Heritage Field, 3.5 nm (6.5 km) NNE. Retrieved 2019/09/15 08:54 UTC (26 minutes ago):

KPTW 150854Z AUTO 00000KT 6SM BR BKN021 OVC029 17/17 A3019 RMK AO2 SLP219 T01720172 53001

TAF (pilot weather forecast)

Closest forecast is Reading Regional Carl A Spaatz Field, 20.7 nm (38.3 km) NW. Retrieved 2019/09/15 06:22 UTC (3 hours ago):

TAF KRDG 150520Z 1506/1606 VRB02KT P6SM BKN035 TEMPO 1506/1510 4SM BR OVC025 FM151000 VRB04KT 5SM BR BKN035 FM151300 VRB04KT P6SM SCT150